createdAt,value
2018-11-28T00:02:24.696Z,99.90
2018-11-28T00:08:33.037Z,99.90
2018-11-28T00:11:03.630Z,99.90
2018-11-28T00:13:35.025Z,99.90
2018-11-28T00:16:06.680Z,99.90
2018-11-28T00:18:37.280Z,99.90
2018-11-28T00:21:08.112Z,99.90
2018-11-28T00:23:38.887Z,99.90
2018-11-28T00:26:09.871Z,99.90
2018-11-28T00:28:40.672Z,99.90
2018-11-28T00:31:11.506Z,99.90
2018-11-28T00:33:42.858Z,99.90
2018-11-28T00:36:13.531Z,99.90
2018-11-28T00:38:44.091Z,99.90
2018-11-28T00:41:14.990Z,99.90
2018-11-28T00:43:45.435Z,99.90
2018-11-28T00:46:15.911Z,99.90
2018-11-28T00:48:46.511Z,99.90
2018-11-28T00:51:16.852Z,99.90
2018-11-28T00:53:47.910Z,99.90
2018-11-28T00:56:18.831Z,99.90
2018-11-28T00:58:49.448Z,99.90
2018-11-28T01:01:20.252Z,99.90
2018-11-28T01:03:51.630Z,99.90
2018-11-28T01:06:22.411Z,99.90
2018-11-28T01:08:53.510Z,99.90
2018-11-28T01:11:24.371Z,99.90
2018-11-28T01:13:55.870Z,99.90
2018-11-28T01:16:26.390Z,99.90
2018-11-28T01:18:57.169Z,99.90
2018-11-28T01:21:27.932Z,99.90
2018-11-28T01:23:59.311Z,99.90
2018-11-28T01:26:30.132Z,99.90
2018-11-28T01:29:00.810Z,99.90
2018-11-28T01:31:31.800Z,99.90
2018-11-28T01:34:02.931Z,99.90
2018-11-28T01:36:33.772Z,99.90
2018-11-28T01:39:04.911Z,99.90
2018-11-28T01:41:35.214Z,99.90
2018-11-28T01:44:05.907Z,99.90
2018-11-28T01:46:36.772Z,99.90
2018-11-28T01:49:08.093Z,99.90
2018-11-28T01:51:38.903Z,99.90
2018-11-28T01:54:09.891Z,99.90
2018-11-28T01:56:40.539Z,99.90
2018-11-28T01:59:11.151Z,99.90
2018-11-28T02:01:41.773Z,99.90
2018-11-28T02:04:12.172Z,99.90
2018-11-28T02:06:42.356Z,99.90
2018-11-28T02:09:12.890Z,99.90
2018-11-28T02:11:43.711Z,99.90
2018-11-28T02:14:14.550Z,99.90
2018-11-28T02:16:45.172Z,99.90
2018-11-28T02:19:15.571Z,99.90
2018-11-28T02:21:46.631Z,99.90
2018-11-28T02:24:18.191Z,99.90
2018-11-28T02:26:48.913Z,99.90
2018-11-28T02:29:19.252Z,99.90
2018-11-28T02:31:50.015Z,99.90
2018-11-28T02:34:21.198Z,99.90
2018-11-28T02:36:52.011Z,99.90
2018-11-28T02:39:22.831Z,99.90
2018-11-28T02:41:53.351Z,99.90
2018-11-28T02:44:25.272Z,99.90
2018-11-28T02:46:56.053Z,99.90
2018-11-28T02:49:26.951Z,99.90
2018-11-28T02:51:57.144Z,99.90
2018-11-28T02:54:27.712Z,99.90
2018-11-28T02:56:58.232Z,99.90
2018-11-28T03:03:06.068Z,99.90
2018-11-28T03:05:37.971Z,99.90
2018-11-28T03:08:09.851Z,99.90
2018-11-28T03:10:41.579Z,99.90
2018-11-28T03:13:12.584Z,99.90
2018-11-28T03:15:44.632Z,99.90
2018-11-28T03:18:15.313Z,99.90
2018-11-28T03:20:46.072Z,99.90
2018-11-28T03:23:17.252Z,99.90
2018-11-28T03:25:47.988Z,99.90
2018-11-28T03:28:19.132Z,99.90
2018-11-28T03:30:49.858Z,99.90
2018-11-28T03:33:20.915Z,99.90
2018-11-28T03:35:51.894Z,99.90
2018-11-28T03:38:23.312Z,99.90
2018-11-28T03:40:54.351Z,99.90
2018-11-28T03:43:25.152Z,99.90
2018-11-28T03:45:56.113Z,99.90
2018-11-28T03:48:26.886Z,99.90
2018-11-28T03:50:58.513Z,99.90
2018-11-28T03:53:29.651Z,99.90
2018-11-28T03:56:00.862Z,99.90
2018-11-28T03:58:31.933Z,99.90
2018-11-28T04:01:02.693Z,99.90
2018-11-28T04:03:33.874Z,99.90
2018-11-28T04:06:05.209Z,99.90
2018-11-28T04:08:36.531Z,99.90
2018-11-28T04:11:07.185Z,99.90
2018-11-28T04:13:38.332Z,99.90
2018-11-28T04:16:09.313Z,99.90
2018-11-28T04:18:39.952Z,99.90
2018-11-28T04:21:11.294Z,99.90
2018-11-28T04:23:42.515Z,99.90
2018-11-28T04:26:13.231Z,99.90
2018-11-28T04:28:44.473Z,99.90
2018-11-28T04:31:15.118Z,99.90
2018-11-28T04:33:45.492Z,99.90
2018-11-28T04:36:15.972Z,99.90
2018-11-28T04:38:46.373Z,99.90
2018-11-28T04:41:17.162Z,99.90
2018-11-28T04:43:47.551Z,99.90
2018-11-28T04:46:18.274Z,99.90
2018-11-28T04:48:49.532Z,99.90
2018-11-28T04:51:20.393Z,99.90
2018-11-28T04:53:51.592Z,99.90
2018-11-28T04:56:22.185Z,99.90
2018-11-28T04:58:52.475Z,99.90
2018-11-28T05:01:22.811Z,99.90
2018-11-28T05:03:53.489Z,99.90
2018-11-28T05:07:30.903Z,99.90
2018-11-28T05:10:01.852Z,99.90
2018-11-28T05:12:33.231Z,99.90
2018-11-28T05:15:03.872Z,99.90
2018-11-28T05:17:34.917Z,99.90
2018-11-28T05:20:07.932Z,99.90
2018-11-28T05:22:38.714Z,99.90
2018-11-28T05:25:13.020Z,99.90
2018-11-28T05:27:44.219Z,99.90
2018-11-28T05:30:30.148Z,99.90
2018-11-28T05:33:01.552Z,99.90
2018-11-28T05:35:37.212Z,99.90
2018-11-28T05:38:10.494Z,99.90
2018-11-28T05:40:41.931Z,99.90
2018-11-28T05:43:12.292Z,99.90
2018-11-28T05:45:51.651Z,99.90
2018-11-28T05:48:22.092Z,99.90
2018-11-28T05:50:53.152Z,99.90
2018-11-28T05:53:23.721Z,99.90
2018-11-28T05:55:54.772Z,99.90
2018-11-28T05:58:25.692Z,99.90
2018-11-28T06:00:57.236Z,99.90
2018-11-28T06:03:27.492Z,99.90
2018-11-28T06:05:58.472Z,99.90
2018-11-28T06:08:28.854Z,99.90
2018-11-28T06:11:00.033Z,99.90
2018-11-28T06:13:30.765Z,99.90
2018-11-28T06:16:01.966Z,99.90
2018-11-28T06:18:32.696Z,99.90
2018-11-28T06:21:03.380Z,99.90
2018-11-28T06:23:33.885Z,99.90
2018-11-28T06:26:04.291Z,99.90
2018-11-28T06:28:34.570Z,99.90
2018-11-28T06:31:05.869Z,99.90
2018-11-28T06:33:36.272Z,99.90
2018-11-28T06:36:06.912Z,99.90
2018-11-28T06:38:36.990Z,99.90
2018-11-28T06:41:08.480Z,99.90
2018-11-28T06:43:39.092Z,99.90
2018-11-28T06:46:09.786Z,99.90
2018-11-28T06:48:39.990Z,99.90
2018-11-28T06:51:10.320Z,99.90
2018-11-28T06:53:40.834Z,99.90
2018-11-28T06:56:12.141Z,99.90
2018-11-28T06:58:43.347Z,99.90
2018-11-28T07:01:13.806Z,99.90
2018-11-28T07:03:44.051Z,99.90
2018-11-28T07:06:14.590Z,99.90
2018-11-28T07:08:44.912Z,99.90
2018-11-28T07:11:15.212Z,99.90
2018-11-28T07:13:45.531Z,99.90
2018-11-28T07:16:16.035Z,99.90
2018-11-28T07:18:57.655Z,99.90
2018-11-28T07:21:28.195Z,99.90
2018-11-28T07:23:58.683Z,99.90
2018-11-28T07:26:28.879Z,99.90
2018-11-28T07:28:59.297Z,99.90
2018-11-28T07:31:29.532Z,99.90
2018-11-28T07:33:59.890Z,99.90
2018-11-28T07:36:30.245Z,99.90
2018-11-28T07:39:01.225Z,99.90
2018-11-28T07:41:32.311Z,99.90
2018-11-28T07:44:02.801Z,99.90
2018-11-28T07:46:33.598Z,99.90
2018-11-28T07:49:04.791Z,99.90
2018-11-28T07:51:35.752Z,99.90
2018-11-28T07:54:06.835Z,99.90
2018-11-28T07:56:37.492Z,99.90
2018-11-28T07:59:08.212Z,99.90
2018-11-28T08:01:39.245Z,99.90
2018-11-28T08:04:10.474Z,99.90
2018-11-28T08:06:41.553Z,99.90
2018-11-28T08:09:12.912Z,99.90
2018-11-28T08:11:43.752Z,99.90
2018-11-28T08:14:14.812Z,99.90
2018-11-28T08:16:45.599Z,99.90
2018-11-28T08:19:15.876Z,99.90
2018-11-28T08:21:46.083Z,99.90
2018-11-28T08:24:16.398Z,99.90
2018-11-28T08:26:47.362Z,99.90
2018-11-28T08:29:18.053Z,99.90
2018-11-28T08:31:48.232Z,99.90
2018-11-28T08:34:18.772Z,99.90
2018-11-28T08:36:49.252Z,99.90
2018-11-28T08:39:19.732Z,99.90
2018-11-28T08:41:50.665Z,99.90
2018-11-28T08:44:21.178Z,99.90
2018-11-28T08:46:51.307Z,99.90
2018-11-28T08:49:21.363Z,99.90
2018-11-28T08:51:51.852Z,99.90
2018-11-28T08:54:22.095Z,99.90
2018-11-28T08:56:52.447Z,99.90
2018-11-28T08:59:23.081Z,99.90
2018-11-28T09:01:53.588Z,99.90
2018-11-28T09:04:24.409Z,99.90
2018-11-28T09:06:54.599Z,99.90
2018-11-28T09:09:24.759Z,99.90
2018-11-28T09:11:54.868Z,99.90
2018-11-28T09:14:24.994Z,99.90
2018-11-28T09:16:55.412Z,99.90
2018-11-28T09:19:25.586Z,99.90
2018-11-28T09:21:56.192Z,99.90
2018-11-28T09:24:26.311Z,99.90
2018-11-28T09:26:56.446Z,99.90
2018-11-28T09:29:26.690Z,99.90
2018-11-28T09:31:56.859Z,99.90
2018-11-28T09:34:27.299Z,99.90
2018-11-28T09:36:57.493Z,99.90
2018-11-28T09:39:27.741Z,99.90
2018-11-28T09:41:58.067Z,99.90
2018-11-28T09:44:29.605Z,99.90
2018-11-28T09:47:00.253Z,99.90
2018-11-28T09:49:30.792Z,99.90
2018-11-28T09:52:01.401Z,99.90
2018-11-28T09:54:32.731Z,99.90
2018-11-28T09:57:03.442Z,99.90
2018-11-28T09:59:33.826Z,99.90
2018-11-28T10:02:04.323Z,99.90
2018-11-28T10:04:35.425Z,99.90
2018-11-28T10:07:06.192Z,99.90
2018-11-28T10:09:36.431Z,99.90
2018-11-28T10:12:07.303Z,99.90
2018-11-28T10:14:37.630Z,99.90
2018-11-28T10:17:07.789Z,99.90
2018-11-28T10:19:38.310Z,99.90
2018-11-28T10:22:09.451Z,99.90
2018-11-28T10:24:39.743Z,99.90
2018-11-28T10:27:10.145Z,99.90
2018-11-28T10:29:40.286Z,99.90
2018-11-28T10:32:10.432Z,99.90
2018-11-28T10:34:40.863Z,99.90
2018-11-28T10:37:11.296Z,99.90
2018-11-28T10:39:41.528Z,99.90
2018-11-28T10:42:11.749Z,99.90
2018-11-28T10:44:42.301Z,99.90
2018-11-28T10:47:12.347Z,99.90
2018-11-28T10:49:42.468Z,99.90
2018-11-28T10:52:12.827Z,99.90
2018-11-28T10:54:43.757Z,99.90
2018-11-28T10:57:14.348Z,99.90
2018-11-28T10:59:45.045Z,99.90
2018-11-28T11:02:21.148Z,99.90
2018-11-28T11:05:54.940Z,99.90
2018-11-28T11:08:28.112Z,99.90
2018-11-28T11:11:04.017Z,99.90
2018-11-28T11:13:39.694Z,99.90
2018-11-28T11:16:10.434Z,99.90
2018-11-28T11:18:40.794Z,99.90
2018-11-28T11:21:11.357Z,99.90
2018-11-28T11:23:41.790Z,99.90
2018-11-28T11:26:13.002Z,99.90
2018-11-28T11:28:43.693Z,99.90
2018-11-28T11:31:13.993Z,99.90
2018-11-28T11:33:44.692Z,99.90
2018-11-28T11:36:15.074Z,99.20
2018-11-28T11:38:45.513Z,93.10
2018-11-28T11:41:15.914Z,86.60
2018-11-28T11:43:46.508Z,79.30
2018-11-28T11:46:16.574Z,68.20
2018-11-28T11:48:47.339Z,59.50
2018-11-28T11:51:17.674Z,55.00
2018-11-28T11:53:48.553Z,50.70
2018-11-28T11:56:19.155Z,51.00
2018-11-28T11:58:49.453Z,47.60
2018-11-28T12:01:19.922Z,46.60
2018-11-28T12:03:51.194Z,43.90
2018-11-28T12:06:21.473Z,42.00
2018-11-28T12:08:51.634Z,41.70
2018-11-28T12:11:22.173Z,41.10
2018-11-28T12:13:52.920Z,40.70
2018-11-28T12:16:23.342Z,41.80
2018-11-28T12:18:54.114Z,42.90
2018-11-28T12:21:25.131Z,46.30
2018-11-28T12:23:55.373Z,48.00
2018-11-28T12:26:25.570Z,47.50
2018-11-28T12:28:55.933Z,46.70
2018-11-28T12:31:26.493Z,47.10
2018-11-28T12:33:56.920Z,50.70
2018-11-28T12:36:27.394Z,51.90
2018-11-28T12:38:57.774Z,53.50
2018-11-28T12:41:28.154Z,54.60
2018-11-28T12:43:58.619Z,56.40
2018-11-28T12:46:28.935Z,55.90
2018-11-28T12:48:59.494Z,57.90
2018-11-28T12:51:29.853Z,60.60
2018-11-28T12:54:00.155Z,60.80
2018-11-28T12:56:30.830Z,63.60
2018-11-28T12:59:01.081Z,66.10
2018-11-28T13:01:31.574Z,70.20
2018-11-28T13:04:02.261Z,70.70
2018-11-28T13:06:32.713Z,71.70
2018-11-28T13:09:03.212Z,77.40
2018-11-28T13:11:33.834Z,79.20
2018-11-28T13:14:04.194Z,83.30
2018-11-28T13:16:34.554Z,84.30
2018-11-28T13:19:04.934Z,88.20
2018-11-28T13:21:35.414Z,90.60
2018-11-28T13:24:06.417Z,91.80
2018-11-28T13:26:36.834Z,93.80
2018-11-28T13:29:07.616Z,94.40
2018-11-28T13:31:38.875Z,95.20
2018-11-28T13:34:09.429Z,96.40
2018-11-28T13:36:40.191Z,96.90
2018-11-28T13:39:10.932Z,96.80
2018-11-28T13:41:41.465Z,97.50
2018-11-28T13:44:12.213Z,97.50
2018-11-28T13:46:42.559Z,97.70
2018-11-28T13:49:12.926Z,99.60
2018-11-28T13:51:43.433Z,99.90
2018-11-28T13:54:21.312Z,99.90
2018-11-28T13:57:04.681Z,99.90
2018-11-28T13:59:17.133Z,99.90
2018-11-28T14:01:47.781Z,99.90
2018-11-28T14:04:18.536Z,99.90
2018-11-28T14:06:48.801Z,99.90
2018-11-28T14:09:19.636Z,99.90
2018-11-28T14:11:50.273Z,99.90
2018-11-28T14:14:20.836Z,99.90
2018-11-28T14:16:51.793Z,99.90
2018-11-28T14:19:22.627Z,99.90
2018-11-28T14:21:52.993Z,99.90
2018-11-28T14:24:23.633Z,99.90
2018-11-28T14:26:54.153Z,99.90
2018-11-28T14:29:25.734Z,99.90
2018-11-28T14:31:56.236Z,99.90
2018-11-28T14:34:27.280Z,99.90
2018-11-28T14:36:58.733Z,99.90
2018-11-28T14:39:28.953Z,99.90
2018-11-28T14:41:59.304Z,99.90
2018-11-28T14:44:30.220Z,99.90
2018-11-28T14:47:01.825Z,99.90
2018-11-28T14:49:32.114Z,99.90
2018-11-28T14:52:02.434Z,99.90
2018-11-28T14:54:33.179Z,99.90
2018-11-28T14:57:03.207Z,99.90
2018-11-28T14:59:34.024Z,99.90
2018-11-28T15:02:04.868Z,99.90
2018-11-28T15:04:35.513Z,99.90
2018-11-28T15:07:06.313Z,99.90
2018-11-28T15:09:42.719Z,99.90
2018-11-28T15:12:14.536Z,99.90
2018-11-28T15:14:45.633Z,99.90
2018-11-28T15:17:16.312Z,99.90
2018-11-28T15:19:47.037Z,99.90
2018-11-28T15:22:17.902Z,99.90
2018-11-28T15:24:48.593Z,99.90
2018-11-28T15:27:19.253Z,99.90
2018-11-28T15:29:50.373Z,99.90
2018-11-28T15:32:21.373Z,99.90
2018-11-28T15:34:52.344Z,99.90
2018-11-28T15:37:23.392Z,99.90
2018-11-28T15:39:56.020Z,99.90
2018-11-28T15:42:25.574Z,99.90
2018-11-28T15:44:56.934Z,99.90
2018-11-28T15:47:28.353Z,99.90
2018-11-28T15:49:59.075Z,99.90
2018-11-28T15:52:29.333Z,99.90
2018-11-28T15:55:00.455Z,99.90
2018-11-28T15:57:31.193Z,99.90
2018-11-28T16:00:02.016Z,99.90
2018-11-28T16:02:33.213Z,99.90
2018-11-28T16:05:03.953Z,99.90
2018-11-28T16:07:34.399Z,99.90
2018-11-28T16:10:12.376Z,99.90
2018-11-28T16:12:43.770Z,99.90
2018-11-28T16:15:16.375Z,99.90
2018-11-28T16:17:47.153Z,99.90
2018-11-28T16:20:17.496Z,99.90
2018-11-28T16:22:49.273Z,99.90
2018-11-28T16:25:20.551Z,99.90
2018-11-28T16:27:51.567Z,99.90
2018-11-28T16:30:22.893Z,99.90
2018-11-28T16:32:54.023Z,99.90
2018-11-28T16:35:24.413Z,99.90
2018-11-28T16:37:54.933Z,99.90
2018-11-28T16:40:25.534Z,99.90
2018-11-28T16:42:56.913Z,99.90
2018-11-28T16:45:27.452Z,99.90
2018-11-28T16:47:58.352Z,99.90
2018-11-28T16:50:28.976Z,99.90
2018-11-28T16:52:59.152Z,99.90
2018-11-28T16:55:29.479Z,99.90
2018-11-28T16:58:00.562Z,99.90
2018-11-28T17:00:32.582Z,99.90
2018-11-28T17:03:03.437Z,99.90
2018-11-28T17:05:34.253Z,99.90
2018-11-28T17:08:05.318Z,99.90
2018-11-28T17:10:37.053Z,99.90
2018-11-28T17:13:09.372Z,99.90
2018-11-28T17:15:41.582Z,99.90
2018-11-28T17:18:12.553Z,99.90
2018-11-28T17:20:43.394Z,99.90
2018-11-28T17:23:13.939Z,99.90
2018-11-28T17:25:44.094Z,99.90
2018-11-28T17:28:15.533Z,99.90
2018-11-28T17:30:45.972Z,99.90
2018-11-28T17:33:16.233Z,99.90
2018-11-28T17:35:47.153Z,99.90
2018-11-28T17:38:18.213Z,99.90
2018-11-28T17:40:49.992Z,99.90
2018-11-28T17:43:21.652Z,99.90
2018-11-28T17:45:52.594Z,99.90
2018-11-28T17:48:23.137Z,99.90
2018-11-28T17:50:53.736Z,99.90
2018-11-28T17:53:26.254Z,99.90
2018-11-28T17:55:59.032Z,99.90
2018-11-28T17:58:29.813Z,99.90
2018-11-28T18:01:00.672Z,99.90
2018-11-28T18:03:31.773Z,99.90
2018-11-28T18:06:03.472Z,99.90
2018-11-28T18:08:34.880Z,99.90
2018-11-28T18:11:11.929Z,99.90
2018-11-28T18:13:44.117Z,99.90
2018-11-28T18:16:14.973Z,99.90
2018-11-28T18:18:46.211Z,99.90
2018-11-28T18:21:16.911Z,99.90
2018-11-28T18:23:47.693Z,99.90
2018-11-28T18:26:18.533Z,99.90
2018-11-28T18:28:49.534Z,99.90
2018-11-28T18:31:20.955Z,99.90
2018-11-28T18:33:51.362Z,99.90
2018-11-28T18:36:22.673Z,99.90
2018-11-28T18:38:53.073Z,99.90
2018-11-28T18:41:23.933Z,99.90
2018-11-28T18:43:54.952Z,99.90
2018-11-28T18:46:26.190Z,99.90
2018-11-28T18:48:56.712Z,99.90
2018-11-28T18:51:27.574Z,99.90
2018-11-28T18:54:00.571Z,99.90
2018-11-28T18:56:30.995Z,99.90
2018-11-28T18:59:02.055Z,99.90
2018-11-28T19:01:32.752Z,99.90
2018-11-28T19:04:03.593Z,99.90
2018-11-28T19:06:33.922Z,99.90
2018-11-28T19:09:06.173Z,99.90
2018-11-28T19:11:36.353Z,99.90
2018-11-28T19:14:12.309Z,99.90
2018-11-28T19:16:38.428Z,99.90
2018-11-28T19:19:09.431Z,99.90
2018-11-28T19:21:40.753Z,99.90
2018-11-28T19:24:11.896Z,99.90
2018-11-28T19:26:42.334Z,99.90
2018-11-28T19:29:13.000Z,99.90
2018-11-28T19:31:43.858Z,99.90
2018-11-28T19:34:18.202Z,99.90
2018-11-28T19:36:46.211Z,99.90
2018-11-28T19:39:17.378Z,99.90
2018-11-28T19:41:48.138Z,99.90
2018-11-28T19:44:19.474Z,99.90
2018-11-28T19:46:50.192Z,99.90
2018-11-28T19:49:21.132Z,99.90
2018-11-28T19:51:52.272Z,99.90
2018-11-28T19:54:22.971Z,99.90
2018-11-28T19:56:55.092Z,99.90
2018-11-28T19:59:27.012Z,99.90
2018-11-28T20:01:58.352Z,99.90
2018-11-28T20:04:30.037Z,99.90
2018-11-28T20:07:01.552Z,99.90
2018-11-28T20:09:32.515Z,99.90
2018-11-28T20:12:04.134Z,99.90
2018-11-28T20:14:35.847Z,99.90
2018-11-28T20:17:06.971Z,99.90
2018-11-28T20:19:37.281Z,99.90
2018-11-28T20:22:07.352Z,99.90
2018-11-28T20:24:37.814Z,99.90
2018-11-28T20:27:08.294Z,99.90
2018-11-28T20:29:39.391Z,99.90
2018-11-28T20:32:10.212Z,99.90
2018-11-28T20:34:41.260Z,99.90
2018-11-28T20:37:11.734Z,99.90
2018-11-28T20:39:42.553Z,99.90
2018-11-28T20:42:13.151Z,99.90
2018-11-28T20:44:43.476Z,99.90
2018-11-28T20:47:14.473Z,99.90
2018-11-28T20:49:45.434Z,99.90
2018-11-28T20:52:16.112Z,99.90
2018-11-28T20:54:47.095Z,99.90
2018-11-28T20:57:17.921Z,99.90
2018-11-28T20:59:48.799Z,99.90
2018-11-28T21:02:19.892Z,99.90
2018-11-28T21:04:51.372Z,99.90
2018-11-28T21:07:21.940Z,99.90
2018-11-28T21:09:54.252Z,99.90
2018-11-28T21:12:25.152Z,99.90
2018-11-28T21:14:56.633Z,99.90
2018-11-28T21:17:27.084Z,99.90
2018-11-28T21:19:58.212Z,99.90
2018-11-28T21:22:29.392Z,99.90
2018-11-28T21:25:00.414Z,99.90
2018-11-28T21:27:32.454Z,99.90
2018-11-28T21:30:04.135Z,99.90
2018-11-28T21:32:34.995Z,99.90
2018-11-28T21:35:08.412Z,99.90
2018-11-28T21:37:38.847Z,99.90
2018-11-28T21:40:10.752Z,99.90
2018-11-28T21:42:41.832Z,99.90
2018-11-28T21:45:15.170Z,99.90
2018-11-28T21:47:45.876Z,99.90
2018-11-28T21:50:17.854Z,99.90
2018-11-28T21:52:48.833Z,99.90
2018-11-28T21:55:22.713Z,99.90
2018-11-28T21:57:53.681Z,99.90
2018-11-28T22:00:25.612Z,99.90
2018-11-28T22:02:56.592Z,99.90
2018-11-28T22:05:27.772Z,99.90
2018-11-28T22:07:58.652Z,99.90
2018-11-28T22:10:30.671Z,99.90
2018-11-28T22:13:01.953Z,99.90
2018-11-28T22:15:32.852Z,99.90
2018-11-28T22:18:04.413Z,99.90
2018-11-28T22:20:36.092Z,99.90
2018-11-28T22:23:07.253Z,99.90
2018-11-28T22:25:38.512Z,99.90
2018-11-28T22:28:09.852Z,99.90
2018-11-28T22:30:40.891Z,99.90
2018-11-28T22:33:12.253Z,99.90
2018-11-28T22:35:42.892Z,99.90
2018-11-28T22:38:13.751Z,99.90
2018-11-28T22:40:44.652Z,99.90
2018-11-28T22:43:15.855Z,99.90
2018-11-28T22:45:47.141Z,99.90
2018-11-28T22:48:18.193Z,99.90
2018-11-28T22:50:48.955Z,99.90
2018-11-28T22:53:20.531Z,99.90
2018-11-28T22:55:51.273Z,99.90
2018-11-28T22:58:22.052Z,99.90
2018-11-28T23:00:58.633Z,99.90
2018-11-28T23:03:29.532Z,99.90
2018-11-28T23:06:03.773Z,99.90
2018-11-28T23:08:38.353Z,99.90
2018-11-28T23:11:09.051Z,99.90
2018-11-28T23:13:39.724Z,99.90
2018-11-28T23:16:10.515Z,99.90
2018-11-28T23:18:41.982Z,99.90
2018-11-28T23:21:12.832Z,99.90
2018-11-28T23:23:43.876Z,99.90
2018-11-28T23:26:15.332Z,99.90
2018-11-28T23:28:46.192Z,99.90
2018-11-28T23:31:17.372Z,99.90
2018-11-28T23:33:48.112Z,99.90
2018-11-28T23:36:18.732Z,99.90
2018-11-28T23:38:49.632Z,99.90
2018-11-28T23:41:20.762Z,99.90
2018-11-28T23:43:51.651Z,99.90
2018-11-28T23:46:22.652Z,99.90
2018-11-28T23:48:53.732Z,99.90
2018-11-28T23:51:24.533Z,99.90
2018-11-28T23:53:56.212Z,99.90
2018-11-28T23:56:27.890Z,99.90
2018-11-28T23:58:59.391Z,99.90
